createdAt,value
2023-02-23T00:00:47.385Z,32.85
2023-02-23T00:03:15.868Z,38.85
2023-02-23T00:05:44.312Z,34.63
2023-02-23T00:08:12.496Z,37.03
2023-02-23T00:10:40.749Z,39.47
2023-02-23T00:13:11.060Z,36.00
2023-02-23T00:15:40.531Z,38.28
2023-02-23T00:18:10.024Z,37.33
2023-02-23T00:20:44.358Z,41.42
2023-02-23T00:23:12.587Z,35.63
2023-02-23T00:25:42.422Z,37.17
2023-02-23T00:28:12.624Z,42.13
2023-02-23T00:30:41.231Z,36.38
2023-02-23T00:33:09.825Z,41.28
2023-02-23T00:35:38.787Z,40.45
2023-02-23T00:38:06.972Z,41.50
2023-02-23T00:40:35.441Z,37.92
2023-02-23T00:43:04.520Z,42.28
2023-02-23T00:45:34.804Z,42.10
2023-02-23T00:48:03.808Z,39.33
2023-02-23T00:50:33.040Z,40.25
2023-02-23T00:53:01.770Z,38.83
2023-02-23T00:55:30.197Z,38.05
2023-02-23T00:57:59.428Z,36.97
2023-02-23T01:00:28.044Z,39.28
2023-02-23T01:02:57.765Z,39.33
2023-02-23T01:05:26.216Z,40.97
2023-02-23T01:07:54.544Z,40.20
2023-02-23T01:10:23.789Z,40.40
2023-02-23T01:12:53.767Z,36.88
2023-02-23T01:15:22.582Z,40.10
2023-02-23T01:17:50.937Z,39.28
2023-02-23T01:20:21.475Z,45.20
2023-02-23T01:22:52.394Z,42.83
2023-02-23T01:25:21.245Z,40.33
2023-02-23T01:27:49.522Z,39.17
2023-02-23T01:30:18.178Z,39.78
2023-02-23T01:32:46.416Z,38.55
2023-02-23T01:35:15.366Z,44.47
2023-02-23T01:37:46.395Z,45.75
2023-02-23T01:40:28.554Z,42.70
2023-02-23T01:42:59.375Z,42.78
2023-02-23T01:45:34.798Z,42.53
2023-02-23T01:48:08.362Z,43.25
2023-02-23T01:50:46.036Z,44.88
2023-02-23T01:53:17.248Z,42.20
2023-02-23T01:55:49.836Z,41.30
2023-02-23T01:58:20.671Z,44.25
2023-02-23T02:00:51.479Z,46.28
2023-02-23T02:03:27.807Z,48.63
2023-02-23T02:05:57.564Z,53.42
2023-02-23T02:08:30.215Z,39.00
2023-02-23T02:10:59.119Z,44.35
2023-02-23T02:13:32.299Z,51.42
2023-02-23T02:16:28.271Z,49.25
2023-02-23T02:19:31.129Z,42.88
2023-02-23T02:22:30.650Z,43.75
2023-02-23T02:25:34.325Z,46.17
2023-02-23T02:28:30.770Z,43.85
2023-02-23T02:31:36.912Z,47.72
2023-02-23T02:34:42.520Z,39.42
2023-02-23T02:37:39.582Z,45.85
2023-02-23T02:40:19.545Z,40.10
2023-02-23T02:43:08.864Z,42.05
2023-02-23T02:45:45.281Z,44.80
2023-02-23T02:48:25.874Z,47.15
2023-02-23T02:50:57.346Z,45.55
2023-02-23T02:53:36.896Z,42.03
2023-02-23T02:56:07.462Z,39.63
2023-02-23T02:58:37.129Z,40.72
2023-02-23T03:01:27.956Z,45.90
2023-02-23T03:04:13.435Z,45.67
2023-02-23T03:07:05.535Z,40.90
2023-02-23T03:10:00.555Z,44.13
2023-02-23T03:12:56.442Z,44.13
2023-02-23T03:15:55.668Z,41.08
2023-02-23T03:18:59.296Z,39.28
2023-02-23T03:21:52.315Z,37.90
2023-02-23T03:24:47.657Z,43.55
2023-02-23T03:27:44.936Z,38.00
2023-02-23T03:30:38.428Z,46.95
2023-02-23T03:33:35.248Z,44.13
2023-02-23T03:36:24.548Z,40.40
2023-02-23T03:39:17.945Z,44.85
2023-02-23T03:42:07.629Z,48.50
2023-02-23T03:44:58.457Z,42.08
2023-02-23T03:47:48.926Z,44.92
2023-02-23T03:50:39.838Z,39.78
2023-02-23T03:53:29.331Z,43.78
2023-02-23T03:56:18.512Z,41.47
2023-02-23T03:59:11.162Z,36.05
2023-02-23T04:01:58.509Z,37.05
2023-02-23T04:04:49.167Z,41.58
2023-02-23T04:07:37.425Z,41.13
2023-02-23T04:10:26.594Z,41.35
2023-02-23T04:13:16.507Z,40.20
2023-02-23T04:15:49.409Z,38.38
2023-02-23T04:18:24.640Z,37.72
2023-02-23T04:20:53.411Z,38.65
2023-02-23T04:23:24.449Z,43.47
2023-02-23T04:25:55.056Z,43.80
2023-02-23T04:28:25.055Z,44.08
2023-02-23T04:30:59.697Z,46.70
2023-02-23T04:33:30.309Z,45.53
2023-02-23T04:35:59.589Z,50.30
2023-02-23T04:38:28.688Z,48.30
2023-02-23T04:40:56.997Z,51.22
2023-02-23T04:43:25.508Z,54.08
2023-02-23T04:45:54.202Z,50.25
2023-02-23T04:48:25.192Z,48.72
2023-02-23T04:50:56.164Z,45.60
2023-02-23T04:53:25.502Z,50.15
2023-02-23T04:55:55.330Z,50.65
2023-02-23T04:58:23.888Z,55.38
2023-02-23T05:00:53.629Z,51.67
2023-02-23T05:03:22.311Z,52.80
2023-02-23T05:05:51.479Z,51.42
2023-02-23T05:08:22.338Z,53.53
2023-02-23T05:10:51.543Z,64.18
2023-02-23T05:13:20.684Z,57.00
2023-02-23T05:15:49.233Z,58.00
2023-02-23T05:18:18.346Z,58.20
2023-02-23T05:20:47.791Z,59.42
2023-02-23T05:23:15.992Z,61.10
2023-02-23T05:25:46.604Z,61.67
2023-02-23T05:28:14.834Z,61.85
2023-02-23T05:30:43.626Z,63.58
2023-02-23T05:33:15.447Z,59.80
2023-02-23T05:35:45.244Z,63.42
2023-02-23T05:38:13.639Z,66.10
2023-02-23T05:40:42.146Z,70.20
2023-02-23T05:43:11.957Z,71.13
2023-02-23T05:45:42.045Z,65.13
2023-02-23T05:48:13.016Z,62.78
2023-02-23T05:50:41.760Z,71.63
2023-02-23T05:53:13.159Z,69.05
2023-02-23T05:55:42.075Z,66.25
2023-02-23T05:58:12.108Z,61.25
2023-02-23T06:00:40.874Z,63.28
2023-02-23T06:03:09.709Z,62.20
2023-02-23T06:05:38.113Z,58.55
2023-02-23T06:08:06.565Z,62.88
2023-02-23T06:10:36.760Z,65.03
2023-02-23T06:13:08.126Z,58.58
2023-02-23T06:15:38.469Z,56.97
2023-02-23T06:18:09.189Z,59.17
2023-02-23T06:20:40.291Z,61.13
2023-02-23T06:23:09.406Z,57.47
2023-02-23T06:25:40.897Z,59.28
2023-02-23T06:28:11.501Z,52.45
2023-02-23T06:30:42.519Z,56.70
2023-02-23T06:33:16.319Z,58.13
2023-02-23T06:35:46.236Z,69.28
2023-02-23T06:38:15.381Z,73.93
2023-02-23T06:40:44.325Z,65.60
2023-02-23T06:43:13.226Z,63.60
2023-02-23T06:45:43.985Z,70.18
2023-02-23T06:48:12.715Z,63.53
2023-02-23T06:50:42.266Z,68.50
2023-02-23T06:53:10.925Z,72.88
2023-02-23T06:55:39.182Z,71.60
2023-02-23T06:58:08.252Z,70.82
2023-02-23T07:00:37.508Z,74.10
2023-02-23T07:03:07.497Z,69.82
2023-02-23T07:05:36.228Z,67.25
2023-02-23T07:08:05.507Z,70.25
2023-02-23T07:10:35.068Z,75.38
2023-02-23T07:13:03.533Z,71.95
2023-02-23T07:15:32.158Z,74.57
2023-02-23T07:18:00.606Z,65.45
2023-02-23T07:20:31.997Z,73.60
2023-02-23T07:23:02.227Z,68.13
2023-02-23T07:25:32.659Z,69.53
2023-02-23T07:28:01.116Z,66.45
2023-02-23T07:30:30.167Z,67.95
2023-02-23T07:32:58.439Z,66.20
2023-02-23T07:35:27.421Z,65.57
2023-02-23T07:37:58.781Z,59.67
2023-02-23T07:40:28.199Z,59.88
2023-02-23T07:42:57.527Z,56.47
2023-02-23T07:45:26.614Z,59.83
2023-02-23T07:47:54.786Z,60.97
2023-02-23T07:50:23.736Z,61.03
2023-02-23T07:52:52.320Z,58.38
2023-02-23T07:55:22.548Z,59.63
2023-02-23T07:57:50.854Z,57.70
2023-02-23T08:00:20.330Z,66.45
2023-02-23T08:02:48.563Z,62.72
2023-02-23T08:05:17.108Z,58.25
2023-02-23T08:07:45.756Z,56.15
2023-02-23T08:10:14.541Z,54.88
2023-02-23T08:12:44.617Z,60.20
2023-02-23T08:15:13.256Z,61.45
2023-02-23T08:17:42.156Z,53.63
2023-02-23T08:20:12.210Z,50.10
2023-02-23T08:22:49.397Z,50.45
2023-02-23T08:25:18.866Z,55.58
2023-02-23T08:27:51.999Z,54.92
2023-02-23T08:30:21.668Z,57.50
2023-02-23T08:32:50.723Z,49.05
2023-02-23T08:35:20.403Z,50.03
2023-02-23T08:37:48.758Z,58.13
2023-02-23T08:40:18.568Z,61.70
2023-02-23T08:42:52.091Z,59.85
2023-02-23T08:45:21.487Z,56.42
2023-02-23T08:47:49.892Z,59.35
2023-02-23T08:50:18.524Z,65.20
2023-02-23T08:52:46.766Z,59.72
2023-02-23T08:55:18.044Z,60.53
2023-02-23T08:57:46.588Z,62.30
2023-02-23T09:00:17.670Z,61.97
2023-02-23T09:02:48.130Z,59.70
2023-02-23T09:05:17.192Z,57.00
2023-02-23T09:07:46.424Z,63.95
2023-02-23T09:10:17.114Z,59.85
2023-02-23T09:12:45.498Z,56.47
2023-02-23T09:15:14.031Z,59.88
2023-02-23T09:17:45.349Z,54.50
2023-02-23T09:20:15.866Z,67.22
2023-02-23T09:22:48.744Z,57.75
2023-02-23T09:25:19.523Z,55.08
2023-02-23T09:27:47.792Z,53.83
2023-02-23T09:30:18.037Z,56.50
2023-02-23T09:32:47.790Z,59.45
2023-02-23T09:35:17.894Z,73.78
2023-02-23T09:37:47.464Z,61.80
2023-02-23T09:40:18.776Z,63.65
2023-02-23T09:42:55.079Z,65.57
2023-02-23T09:45:34.634Z,73.35
2023-02-23T09:48:13.570Z,65.47
2023-02-23T09:50:44.887Z,67.57
2023-02-23T09:53:25.879Z,71.53
2023-02-23T09:55:56.146Z,78.03
2023-02-23T09:58:27.235Z,66.97
2023-02-23T10:01:13.028Z,72.90
2023-02-23T10:03:51.647Z,74.55
2023-02-23T10:06:21.119Z,75.68
2023-02-23T10:09:03.628Z,69.60
2023-02-23T10:11:41.435Z,79.13
2023-02-23T10:14:36.242Z,78.18
2023-02-23T10:17:17.349Z,75.53
2023-02-23T10:19:54.677Z,80.22
2023-02-23T10:22:25.437Z,83.72
2023-02-23T10:24:58.394Z,70.43
2023-02-23T10:27:34.604Z,67.82
2023-02-23T10:30:04.901Z,70.22
2023-02-23T10:32:42.547Z,65.18
2023-02-23T10:35:15.418Z,68.13
2023-02-23T10:37:44.662Z,68.65
2023-02-23T10:40:17.885Z,67.97
2023-02-23T10:42:46.318Z,73.22
2023-02-23T10:45:18.740Z,75.82
2023-02-23T10:47:48.040Z,71.97
2023-02-23T10:50:18.278Z,71.68
2023-02-23T10:52:49.393Z,77.38
2023-02-23T10:55:27.439Z,71.63
2023-02-23T10:58:16.783Z,69.43
2023-02-23T11:01:04.124Z,67.43
2023-02-23T11:03:37.191Z,75.47
2023-02-23T11:06:08.538Z,68.65
2023-02-23T11:08:39.703Z,72.28
2023-02-23T11:11:19.770Z,68.65
2023-02-23T11:13:50.202Z,69.63
2023-02-23T11:16:21.361Z,68.60
2023-02-23T11:18:55.762Z,63.38
2023-02-23T11:21:29.581Z,67.22
2023-02-23T11:24:00.671Z,62.60
2023-02-23T11:26:33.986Z,58.53
2023-02-23T11:29:11.063Z,61.08
2023-02-23T11:31:40.739Z,56.30
2023-02-23T11:34:20.831Z,54.80
2023-02-23T11:37:01.796Z,59.90
2023-02-23T11:39:30.260Z,61.60
2023-02-23T11:42:19.231Z,65.85
2023-02-23T11:44:53.242Z,65.70
2023-02-23T11:47:23.909Z,62.97
2023-02-23T11:49:52.872Z,72.13
2023-02-23T11:52:25.903Z,67.97
2023-02-23T11:54:58.318Z,67.07
2023-02-23T11:57:30.023Z,70.13
2023-02-23T12:00:00.291Z,69.82
2023-02-23T12:02:30.865Z,67.25
2023-02-23T12:05:09.163Z,71.25
2023-02-23T12:07:46.209Z,65.85
2023-02-23T12:10:20.892Z,65.07
2023-02-23T12:12:57.189Z,62.58
2023-02-23T12:15:50.594Z,62.80
2023-02-23T12:18:38.236Z,66.97
2023-02-23T12:21:26.544Z,61.25
2023-02-23T12:24:05.599Z,60.55
2023-02-23T12:27:43.314Z,62.47
2023-02-23T12:30:19.211Z,58.33
2023-02-23T12:32:53.968Z,60.88
2023-02-23T12:35:30.754Z,56.45
2023-02-23T12:38:04.088Z,59.50
2023-02-23T12:40:36.571Z,67.60
2023-02-23T12:43:12.749Z,59.13
2023-02-23T12:45:47.154Z,57.90
2023-02-23T12:48:26.028Z,64.10
2023-02-23T12:50:56.941Z,52.55
2023-02-23T12:53:30.356Z,57.85
2023-02-23T12:56:16.735Z,55.17
2023-02-23T12:58:52.072Z,55.17
2023-02-23T13:01:28.913Z,55.22
2023-02-23T13:04:22.366Z,57.28
2023-02-23T13:07:04.348Z,59.63
2023-02-23T13:09:44.810Z,55.80
2023-02-23T13:12:37.946Z,58.53
2023-02-23T13:15:19.789Z,53.63
2023-02-23T13:17:54.416Z,60.25
2023-02-23T13:20:28.685Z,58.70
2023-02-23T13:23:09.501Z,54.28
2023-02-23T13:25:47.598Z,60.95
2023-02-23T13:28:21.876Z,63.53
2023-02-23T13:30:50.397Z,59.50
2023-02-23T13:33:34.940Z,64.90
2023-02-23T13:36:13.009Z,59.53
2023-02-23T13:38:47.932Z,52.10
2023-02-23T13:41:31.604Z,56.10
2023-02-23T13:44:08.335Z,57.85
2023-02-23T13:46:44.932Z,60.05
2023-02-23T13:49:25.838Z,60.28
2023-02-23T13:51:58.990Z,60.65
2023-02-23T13:54:34.693Z,64.90
2023-02-23T13:57:05.846Z,62.53
2023-02-23T13:59:45.382Z,56.22
2023-02-23T14:02:38.392Z,53.85
2023-02-23T14:05:20.622Z,49.40
2023-02-23T14:07:53.134Z,51.17
2023-02-23T14:10:22.998Z,54.58
2023-02-23T14:13:25.254Z,52.75
2023-02-23T14:16:17.070Z,57.78
2023-02-23T14:18:58.305Z,49.58
2023-02-23T14:21:33.818Z,59.05
2023-02-23T14:24:17.545Z,47.28
2023-02-23T14:27:08.332Z,46.65
2023-02-23T14:29:41.651Z,43.60
2023-02-23T14:32:32.596Z,41.25
2023-02-23T14:35:02.560Z,41.33
2023-02-23T14:37:36.247Z,43.97
2023-02-23T14:40:15.842Z,34.70
2023-02-23T14:42:48.882Z,34.30
2023-02-23T14:45:26.960Z,37.55
2023-02-23T14:48:00.735Z,36.38
2023-02-23T14:50:31.434Z,39.50
2023-02-23T14:53:01.394Z,34.67
2023-02-23T14:55:32.645Z,34.47
2023-02-23T14:58:03.214Z,33.80
2023-02-23T15:00:34.098Z,33.03
2023-02-23T15:03:06.009Z,31.10
2023-02-23T15:05:37.877Z,31.30
2023-02-23T15:08:10.634Z,29.88
2023-02-23T15:10:41.854Z,31.63
2023-02-23T15:13:13.569Z,28.42
2023-02-23T15:15:46.018Z,28.70
2023-02-23T15:18:23.894Z,26.80
2023-02-23T15:20:52.615Z,26.42
2023-02-23T15:23:22.342Z,22.02
2023-02-23T15:25:51.358Z,25.55
2023-02-23T15:28:26.763Z,24.30
2023-02-23T15:30:56.460Z,25.35
2023-02-23T15:33:28.804Z,23.50
2023-02-23T15:36:10.673Z,24.27
2023-02-23T15:38:44.811Z,25.50
2023-02-23T15:41:23.145Z,25.23
2023-02-23T15:43:51.865Z,24.75
2023-02-23T15:46:24.910Z,26.45
2023-02-23T15:48:56.707Z,23.85
2023-02-23T15:51:33.478Z,22.95
2023-02-23T15:54:04.099Z,27.17
2023-02-23T15:56:35.754Z,24.05
2023-02-23T15:59:11.168Z,25.38
2023-02-23T16:01:45.129Z,26.35
2023-02-23T16:04:20.031Z,26.15
2023-02-23T16:06:53.391Z,28.33
2023-02-23T16:09:30.229Z,27.10
2023-02-23T16:12:03.719Z,27.10
2023-02-23T16:14:42.114Z,30.27
2023-02-23T16:17:27.006Z,26.40
2023-02-23T16:20:09.438Z,30.35
2023-02-23T16:22:41.690Z,27.30
2023-02-23T16:25:14.926Z,28.23
2023-02-23T16:27:44.379Z,30.00
2023-02-23T16:30:24.724Z,30.45
2023-02-23T16:33:08.692Z,29.98
2023-02-23T16:35:46.473Z,27.92
2023-02-23T16:38:16.600Z,29.63
2023-02-23T16:40:45.338Z,29.23
2023-02-23T16:43:13.749Z,29.58
2023-02-23T16:45:43.710Z,28.25
2023-02-23T16:48:17.490Z,29.40
2023-02-23T16:50:48.341Z,28.98
2023-02-23T16:53:17.052Z,23.75
2023-02-23T16:55:52.059Z,27.10
2023-02-23T16:58:26.149Z,27.08
2023-02-23T17:00:55.361Z,28.85
2023-02-23T17:03:25.609Z,30.67
2023-02-23T17:05:55.526Z,29.45
2023-02-23T17:08:24.508Z,32.42
2023-02-23T17:10:55.916Z,29.67
2023-02-23T17:14:02.289Z,30.40
2023-02-23T17:16:30.805Z,28.25
2023-02-23T17:19:01.217Z,36.40
2023-02-23T17:21:31.754Z,28.13
2023-02-23T17:24:03.682Z,29.67
2023-02-23T17:26:31.983Z,30.65
2023-02-23T17:29:00.268Z,31.77
2023-02-23T17:31:29.071Z,35.70
2023-02-23T17:33:57.721Z,30.10
2023-02-23T17:36:27.585Z,29.77
2023-02-23T17:38:58.849Z,33.22
2023-02-23T17:41:27.733Z,26.90
2023-02-23T17:43:56.279Z,28.00
2023-02-23T17:46:25.049Z,27.50
2023-02-23T17:48:55.148Z,28.05
2023-02-23T17:51:24.749Z,31.33
2023-02-23T17:53:53.452Z,27.70
2023-02-23T17:56:24.174Z,28.27
2023-02-23T17:58:52.690Z,27.13
2023-02-23T18:01:21.285Z,29.48
2023-02-23T18:03:51.000Z,28.02
2023-02-23T18:06:19.799Z,26.35
2023-02-23T18:08:48.140Z,26.05
2023-02-23T18:11:18.617Z,24.77
2023-02-23T18:13:51.300Z,25.35
2023-02-23T18:16:20.651Z,29.52
2023-02-23T18:18:50.190Z,23.98
2023-02-23T18:21:20.883Z,23.05
2023-02-23T18:23:51.128Z,23.88
2023-02-23T18:26:25.333Z,23.63
2023-02-23T18:28:57.086Z,22.83
2023-02-23T18:31:28.139Z,24.55
2023-02-23T18:33:56.720Z,20.55
2023-02-23T18:36:27.966Z,21.77
2023-02-23T18:38:57.505Z,19.63
2023-02-23T18:41:31.224Z,22.55
2023-02-23T18:44:01.467Z,20.27
2023-02-23T18:46:30.701Z,20.35
2023-02-23T18:49:00.144Z,19.80
2023-02-23T18:51:28.788Z,16.30
2023-02-23T18:53:57.543Z,17.13
2023-02-23T18:56:28.849Z,17.67
2023-02-23T18:59:00.012Z,15.85
2023-02-23T19:01:33.300Z,19.67
2023-02-23T19:04:03.589Z,15.80
2023-02-23T19:06:32.979Z,15.88
2023-02-23T19:09:04.237Z,15.75
2023-02-23T19:11:38.257Z,16.60
2023-02-23T19:14:08.523Z,16.17
2023-02-23T19:16:38.950Z,14.50
2023-02-23T19:19:08.470Z,14.90
2023-02-23T19:21:37.313Z,14.57
2023-02-23T19:24:07.208Z,15.55
2023-02-23T19:26:37.457Z,14.05
2023-02-23T19:29:06.162Z,15.85
2023-02-23T19:31:35.177Z,15.20
2023-02-23T19:34:05.201Z,13.00
2023-02-23T19:36:35.492Z,13.52
2023-02-23T19:39:15.575Z,16.27
2023-02-23T19:41:47.141Z,14.73
2023-02-23T19:44:15.587Z,14.63
2023-02-23T19:46:44.156Z,13.77
2023-02-23T19:49:14.126Z,17.02
2023-02-23T19:51:42.399Z,14.68
2023-02-23T19:54:12.417Z,18.27
2023-02-23T19:56:40.672Z,14.07
2023-02-23T19:59:09.363Z,17.20
2023-02-23T20:01:37.915Z,13.93
2023-02-23T20:04:08.482Z,15.18
2023-02-23T20:06:44.671Z,12.40
2023-02-23T20:09:13.405Z,14.90
2023-02-23T20:11:42.653Z,15.13
2023-02-23T20:14:12.506Z,15.98
2023-02-23T20:16:40.917Z,19.30
2023-02-23T20:19:09.286Z,16.30
2023-02-23T20:21:42.239Z,17.23
2023-02-23T20:24:12.728Z,20.15
2023-02-23T20:26:41.125Z,14.88
2023-02-23T20:29:11.860Z,20.77
2023-02-23T20:31:42.912Z,18.73
2023-02-23T20:34:12.112Z,17.40
2023-02-23T20:36:42.062Z,15.05
2023-02-23T20:39:11.242Z,16.45
2023-02-23T20:41:43.455Z,17.73
2023-02-23T20:44:12.574Z,17.88
2023-02-23T20:46:41.410Z,16.90
2023-02-23T20:49:11.519Z,14.77
2023-02-23T20:51:42.518Z,14.80
2023-02-23T20:54:11.668Z,17.20
2023-02-23T20:56:41.617Z,13.77
2023-02-23T20:59:15.657Z,14.68
2023-02-23T21:01:45.332Z,14.88
2023-02-23T21:04:14.065Z,15.82
2023-02-23T21:06:43.625Z,16.00
2023-02-23T21:09:18.150Z,18.63
2023-02-23T21:11:48.290Z,17.85
2023-02-23T21:14:20.613Z,15.45
2023-02-23T21:16:49.065Z,21.23
2023-02-23T21:19:22.682Z,17.52
2023-02-23T21:21:57.866Z,17.92
2023-02-23T21:24:27.335Z,19.10
2023-02-23T21:26:55.573Z,17.55
2023-02-23T21:29:24.012Z,19.63
2023-02-23T21:31:52.786Z,17.45
2023-02-23T21:34:21.408Z,17.30
2023-02-23T21:36:51.394Z,19.80
2023-02-23T21:39:21.634Z,18.40
2023-02-23T21:41:49.886Z,17.95
2023-02-23T21:44:18.237Z,19.65
2023-02-23T21:46:46.566Z,21.77
2023-02-23T21:49:14.888Z,18.80
2023-02-23T21:51:43.103Z,19.95
2023-02-23T21:54:12.845Z,24.08
2023-02-23T21:56:41.411Z,22.35
2023-02-23T21:59:10.748Z,20.35
2023-02-23T22:01:40.888Z,24.75
2023-02-23T22:04:13.992Z,21.35
2023-02-23T22:06:44.669Z,20.33
2023-02-23T22:09:15.800Z,26.40
2023-02-23T22:11:47.368Z,24.23
2023-02-23T22:14:18.242Z,24.90
2023-02-23T22:16:47.644Z,34.47
2023-02-23T22:19:16.520Z,23.27
2023-02-23T22:21:47.973Z,29.17
2023-02-23T22:24:17.937Z,31.20
2023-02-23T22:26:50.606Z,28.25
2023-02-23T22:29:19.080Z,29.35
2023-02-23T22:31:47.454Z,29.10
2023-02-23T22:34:15.845Z,29.77
2023-02-23T22:36:44.896Z,33.83
2023-02-23T22:39:16.301Z,30.80
2023-02-23T22:41:47.253Z,32.00
2023-02-23T22:44:17.551Z,29.85
2023-02-23T22:46:48.108Z,31.63
2023-02-23T22:49:20.075Z,33.35
2023-02-23T22:51:50.569Z,31.63
2023-02-23T22:54:20.399Z,34.22
2023-02-23T22:56:50.626Z,34.30
2023-02-23T22:59:20.479Z,43.33
2023-02-23T23:01:50.330Z,38.13
2023-02-23T23:04:22.185Z,39.70
2023-02-23T23:06:51.616Z,40.60
2023-02-23T23:09:21.197Z,41.65
2023-02-23T23:11:52.014Z,41.47
2023-02-23T23:14:21.305Z,36.08
2023-02-23T23:16:50.607Z,40.70
2023-02-23T23:19:24.090Z,37.78
2023-02-23T23:21:55.827Z,33.83
2023-02-23T23:24:25.887Z,38.83
2023-02-23T23:26:59.596Z,33.00
2023-02-23T23:29:30.537Z,38.08
2023-02-23T23:31:59.125Z,39.70
2023-02-23T23:34:27.618Z,36.60
2023-02-23T23:36:56.843Z,38.92
2023-02-23T23:39:27.083Z,39.63
2023-02-23T23:41:56.719Z,35.65
2023-02-23T23:44:29.104Z,41.33
2023-02-23T23:46:58.016Z,40.55
2023-02-23T23:49:27.051Z,33.30
2023-02-23T23:51:57.120Z,33.53
2023-02-23T23:54:27.534Z,31.92
2023-02-23T23:56:57.773Z,34.55
2023-02-23T23:59:27.536Z,24.65
